sensor_id;sensor_type;location;lat;lon;timestamp;P1;durP1;ratioP1;P2;durP2;ratioP2
41635;SDS011;27623;51.966;4.602;2022-12-07T00:00:32;4.00;;;1.27;;
41635;SDS011;27623;51.966;4.602;2022-12-07T00:02:58;7.03;;;1.60;;
41635;SDS011;27623;51.966;4.602;2022-12-07T00:05:23;3.10;;;1.20;;
41635;SDS011;27623;51.966;4.602;2022-12-07T00:07:51;4.85;;;1.55;;
41635;SDS011;27623;51.966;4.602;2022-12-07T00:10:17;6.60;;;1.42;;
41635;SDS011;27623;51.966;4.602;2022-12-07T00:12:42;3.83;;;1.30;;
41635;SDS011;27623;51.966;4.602;2022-12-07T00:15:08;3.72;;;1.10;;
41635;SDS011;27623;51.966;4.602;2022-12-07T00:17:36;5.47;;;1.50;;
41635;SDS011;27623;51.966;4.602;2022-12-07T00:20:04;4.65;;;1.98;;
41635;SDS011;27623;51.966;4.602;2022-12-07T00:22:30;2.05;;;1.10;;
41635;SDS011;27623;51.966;4.602;2022-12-07T00:24:57;4.40;;;1.10;;
41635;SDS011;27623;51.966;4.602;2022-12-07T00:27:24;5.50;;;1.15;;
41635;SDS011;27623;51.966;4.602;2022-12-07T00:29:49;5.53;;;0.95;;
41635;SDS011;27623;51.966;4.602;2022-12-07T00:32:15;6.18;;;1.38;;
41635;SDS011;27623;51.966;4.602;2022-12-07T00:34:41;4.88;;;1.40;;
41635;SDS011;27623;51.966;4.602;2022-12-07T00:37:07;5.63;;;1.38;;
41635;SDS011;27623;51.966;4.602;2022-12-07T00:39:33;5.55;;;1.58;;
41635;SDS011;27623;51.966;4.602;2022-12-07T00:41:59;3.03;;;1.20;;
41635;SDS011;27623;51.966;4.602;2022-12-07T00:44:25;2.70;;;1.15;;
41635;SDS011;27623;51.966;4.602;2022-12-07T00:46:51;5.10;;;1.30;;
41635;SDS011;27623;51.966;4.602;2022-12-07T00:49:17;4.68;;;1.88;;
41635;SDS011;27623;51.966;4.602;2022-12-07T00:51:43;10.30;;;1.88;;
41635;SDS011;27623;51.966;4.602;2022-12-07T00:54:08;7.28;;;1.88;;
41635;SDS011;27623;51.966;4.602;2022-12-07T00:56:33;3.15;;;1.40;;
41635;SDS011;27623;51.966;4.602;2022-12-07T00:59:00;2.95;;;1.08;;
41635;SDS011;27623;51.966;4.602;2022-12-07T01:01:29;4.68;;;1.15;;
41635;SDS011;27623;51.966;4.602;2022-12-07T01:03:56;6.07;;;1.60;;
41635;SDS011;27623;51.966;4.602;2022-12-07T01:06:26;4.07;;;1.20;;
41635;SDS011;27623;51.966;4.602;2022-12-07T01:08:52;6.25;;;1.40;;
41635;SDS011;27623;51.966;4.602;2022-12-07T01:11:20;3.42;;;1.27;;
41635;SDS011;27623;51.966;4.602;2022-12-07T01:13:48;2.08;;;0.98;;
41635;SDS011;27623;51.966;4.602;2022-12-07T01:16:18;3.83;;;1.25;;
41635;SDS011;27623;51.966;4.602;2022-12-07T01:18:45;6.80;;;2.03;;
41635;SDS011;27623;51.966;4.602;2022-12-07T01:21:14;5.18;;;1.52;;
41635;SDS011;27623;51.966;4.602;2022-12-07T01:23:47;3.55;;;1.00;;
41635;SDS011;27623;51.966;4.602;2022-12-07T01:26:15;7.28;;;1.70;;
41635;SDS011;27623;51.966;4.602;2022-12-07T01:28:42;4.30;;;1.13;;
41635;SDS011;27623;51.966;4.602;2022-12-07T01:31:10;4.78;;;0.98;;
41635;SDS011;27623;51.966;4.602;2022-12-07T01:33:37;5.55;;;1.00;;
41635;SDS011;27623;51.966;4.602;2022-12-07T01:36:04;4.05;;;1.75;;
41635;SDS011;27623;51.966;4.602;2022-12-07T01:39:04;2.58;;;0.60;;
41635;SDS011;27623;51.966;4.602;2022-12-07T01:41:32;7.30;;;1.15;;
41635;SDS011;27623;51.966;4.602;2022-12-07T01:46:52;2.63;;;1.30;;
41635;SDS011;27623;51.966;4.602;2022-12-07T01:49:31;1.77;;;0.70;;
41635;SDS011;27623;51.966;4.602;2022-12-07T01:54:47;6.15;;;1.48;;
41635;SDS011;27623;51.966;4.602;2022-12-07T01:57:17;3.08;;;1.00;;
41635;SDS011;27623;51.966;4.602;2022-12-07T01:59:44;3.15;;;0.85;;
41635;SDS011;27623;51.966;4.602;2022-12-07T02:02:15;4.13;;;1.33;;
41635;SDS011;27623;51.966;4.602;2022-12-07T02:04:45;5.65;;;1.00;;
41635;SDS011;27623;51.966;4.602;2022-12-07T02:07:11;7.40;;;1.33;;
41635;SDS011;27623;51.966;4.602;2022-12-07T02:09:37;10.15;;;1.20;;
41635;SDS011;27623;51.966;4.602;2022-12-07T02:12:03;6.38;;;1.27;;
41635;SDS011;27623;51.966;4.602;2022-12-07T02:14:29;3.65;;;1.20;;
41635;SDS011;27623;51.966;4.602;2022-12-07T02:17:04;3.05;;;1.23;;
41635;SDS011;27623;51.966;4.602;2022-12-07T02:22:27;1.85;;;0.73;;
41635;SDS011;27623;51.966;4.602;2022-12-07T02:27:46;5.38;;;1.48;;
41635;SDS011;27623;51.966;4.602;2022-12-07T02:30:17;2.45;;;0.80;;
41635;SDS011;27623;51.966;4.602;2022-12-07T02:35:23;2.33;;;1.00;;
41635;SDS011;27623;51.966;4.602;2022-12-07T02:37:53;6.07;;;1.10;;
41635;SDS011;27623;51.966;4.602;2022-12-07T02:40:27;4.18;;;0.88;;
41635;SDS011;27623;51.966;4.602;2022-12-07T02:42:55;5.70;;;1.70;;
41635;SDS011;27623;51.966;4.602;2022-12-07T02:45:47;5.50;;;1.20;;
41635;SDS011;27623;51.966;4.602;2022-12-07T02:48:16;5.75;;;1.45;;
41635;SDS011;27623;51.966;4.602;2022-12-07T02:50:44;1.13;;;0.60;;
41635;SDS011;27623;51.966;4.602;2022-12-07T02:53:29;3.45;;;1.45;;
41635;SDS011;27623;51.966;4.602;2022-12-07T02:55:55;4.40;;;1.30;;
41635;SDS011;27623;51.966;4.602;2022-12-07T03:01:13;7.53;;;1.10;;
41635;SDS011;27623;51.966;4.602;2022-12-07T03:03:47;6.00;;;1.10;;
41635;SDS011;27623;51.966;4.602;2022-12-07T03:06:22;5.95;;;1.23;;
41635;SDS011;27623;51.966;4.602;2022-12-07T03:09:02;3.45;;;1.10;;
41635;SDS011;27623;51.966;4.602;2022-12-07T03:11:46;3.85;;;0.70;;
41635;SDS011;27623;51.966;4.602;2022-12-07T03:14:20;5.07;;;1.02;;
41635;SDS011;27623;51.966;4.602;2022-12-07T03:17:01;3.85;;;0.80;;
41635;SDS011;27623;51.966;4.602;2022-12-07T03:22:02;1.80;;;0.77;;
41635;SDS011;27623;51.966;4.602;2022-12-07T03:24:37;2.83;;;0.60;;
41635;SDS011;27623;51.966;4.602;2022-12-07T03:27:13;3.50;;;0.73;;
41635;SDS011;27623;51.966;4.602;2022-12-07T03:30:27;4.80;;;1.30;;
41635;SDS011;27623;51.966;4.602;2022-12-07T03:33:10;3.03;;;0.70;;
41635;SDS011;27623;51.966;4.602;2022-12-07T03:35:42;5.18;;;0.88;;
41635;SDS011;27623;51.966;4.602;2022-12-07T03:38:17;5.10;;;0.80;;
41635;SDS011;27623;51.966;4.602;2022-12-07T03:43:37;8.15;;;1.35;;
41635;SDS011;27623;51.966;4.602;2022-12-07T03:52:01;1.73;;;0.68;;
41635;SDS011;27623;51.966;4.602;2022-12-07T03:54:39;3.03;;;0.80;;
41635;SDS011;27623;51.966;4.602;2022-12-07T03:57:08;3.58;;;0.82;;
41635;SDS011;27623;51.966;4.602;2022-12-07T03:59:37;4.82;;;0.80;;
41635;SDS011;27623;51.966;4.602;2022-12-07T04:02:05;6.65;;;1.30;;
41635;SDS011;27623;51.966;4.602;2022-12-07T04:04:32;3.58;;;0.73;;
41635;SDS011;27623;51.966;4.602;2022-12-07T04:06:58;4.28;;;0.77;;
41635;SDS011;27623;51.966;4.602;2022-12-07T04:09:24;1.88;;;0.70;;
41635;SDS011;27623;51.966;4.602;2022-12-07T04:11:50;6.72;;;1.05;;
41635;SDS011;27623;51.966;4.602;2022-12-07T04:14:15;2.83;;;0.70;;
41635;SDS011;27623;51.966;4.602;2022-12-07T04:16:47;2.63;;;0.60;;
41635;SDS011;27623;51.966;4.602;2022-12-07T04:19:15;1.63;;;0.47;;
41635;SDS011;27623;51.966;4.602;2022-12-07T04:21:41;2.28;;;0.93;;
41635;SDS011;27623;51.966;4.602;2022-12-07T04:24:06;4.45;;;0.90;;
41635;SDS011;27623;51.966;4.602;2022-12-07T04:26:32;4.22;;;0.60;;
41635;SDS011;27623;51.966;4.602;2022-12-07T04:28:57;3.72;;;0.60;;
41635;SDS011;27623;51.966;4.602;2022-12-07T04:31:22;5.13;;;0.80;;
41635;SDS011;27623;51.966;4.602;2022-12-07T04:33:50;5.38;;;1.08;;
41635;SDS011;27623;51.966;4.602;2022-12-07T04:36:16;2.75;;;0.60;;
41635;SDS011;27623;51.966;4.602;2022-12-07T04:38:42;3.78;;;0.77;;
41635;SDS011;27623;51.966;4.602;2022-12-07T04:41:08;4.20;;;1.15;;
41635;SDS011;27623;51.966;4.602;2022-12-07T04:43:34;4.05;;;0.85;;
41635;SDS011;27623;51.966;4.602;2022-12-07T04:46:00;5.30;;;0.95;;
41635;SDS011;27623;51.966;4.602;2022-12-07T04:48:29;1.95;;;0.57;;
41635;SDS011;27623;51.966;4.602;2022-12-07T04:50:54;2.83;;;0.98;;
41635;SDS011;27623;51.966;4.602;2022-12-07T04:53:23;5.13;;;0.95;;
41635;SDS011;27623;51.966;4.602;2022-12-07T04:55:49;4.90;;;0.90;;
41635;SDS011;27623;51.966;4.602;2022-12-07T04:58:14;2.83;;;1.08;;
41635;SDS011;27623;51.966;4.602;2022-12-07T05:00:39;5.28;;;0.93;;
41635;SDS011;27623;51.966;4.602;2022-12-07T05:03:05;8.85;;;1.15;;
41635;SDS011;27623;51.966;4.602;2022-12-07T05:05:33;3.88;;;0.70;;
41635;SDS011;27623;51.966;4.602;2022-12-07T05:07:59;2.92;;;0.63;;
41635;SDS011;27623;51.966;4.602;2022-12-07T05:10:24;4.03;;;0.70;;
41635;SDS011;27623;51.966;4.602;2022-12-07T05:12:50;5.03;;;0.80;;
41635;SDS011;27623;51.966;4.602;2022-12-07T05:15:18;4.20;;;0.90;;
41635;SDS011;27623;51.966;4.602;2022-12-07T05:17:43;3.03;;;0.95;;
41635;SDS011;27623;51.966;4.602;2022-12-07T05:20:09;2.38;;;0.60;;
41635;SDS011;27623;51.966;4.602;2022-12-07T05:22:34;3.15;;;0.70;;
41635;SDS011;27623;51.966;4.602;2022-12-07T05:25:00;3.60;;;0.55;;
41635;SDS011;27623;51.966;4.602;2022-12-07T05:27:26;1.38;;;0.50;;
41635;SDS011;27623;51.966;4.602;2022-12-07T05:29:51;3.45;;;0.60;;
41635;SDS011;27623;51.966;4.602;2022-12-07T05:32:16;3.10;;;1.23;;
41635;SDS011;27623;51.966;4.602;2022-12-07T05:34:42;3.30;;;0.60;;
41635;SDS011;27623;51.966;4.602;2022-12-07T05:37:08;3.58;;;0.80;;
41635;SDS011;27623;51.966;4.602;2022-12-07T05:39:33;4.88;;;0.73;;
41635;SDS011;27623;51.966;4.602;2022-12-07T05:41:59;6.80;;;0.80;;
41635;SDS011;27623;51.966;4.602;2022-12-07T05:44:43;7.85;;;0.98;;
41635;SDS011;27623;51.966;4.602;2022-12-07T05:47:10;8.80;;;1.60;;
41635;SDS011;27623;51.966;4.602;2022-12-07T05:49:36;5.43;;;1.10;;
41635;SDS011;27623;51.966;4.602;2022-12-07T05:52:02;3.25;;;1.10;;
41635;SDS011;27623;51.966;4.602;2022-12-07T05:54:28;3.70;;;0.90;;
41635;SDS011;27623;51.966;4.602;2022-12-07T05:56:54;4.38;;;1.15;;
41635;SDS011;27623;51.966;4.602;2022-12-07T05:59:20;2.92;;;0.70;;
41635;SDS011;27623;51.966;4.602;2022-12-07T06:01:55;3.13;;;0.80;;
41635;SDS011;27623;51.966;4.602;2022-12-07T06:04:32;1.80;;;0.68;;
41635;SDS011;27623;51.966;4.602;2022-12-07T06:07:02;2.60;;;0.65;;
41635;SDS011;27623;51.966;4.602;2022-12-07T06:09:28;5.88;;;1.20;;
41635;SDS011;27623;51.966;4.602;2022-12-07T06:11:54;4.30;;;1.27;;
41635;SDS011;27623;51.966;4.602;2022-12-07T06:14:39;5.95;;;0.98;;
41635;SDS011;27623;51.966;4.602;2022-12-07T06:17:07;6.68;;;1.05;;
41635;SDS011;27623;51.966;4.602;2022-12-07T06:19:33;4.07;;;0.80;;
41635;SDS011;27623;51.966;4.602;2022-12-07T06:22:00;1.63;;;0.60;;
41635;SDS011;27623;51.966;4.602;2022-12-07T06:24:26;3.30;;;0.90;;
41635;SDS011;27623;51.966;4.602;2022-12-07T06:26:51;2.88;;;0.68;;
41635;SDS011;27623;51.966;4.602;2022-12-07T06:29:17;5.22;;;0.82;;
41635;SDS011;27623;51.966;4.602;2022-12-07T06:31:47;2.42;;;0.68;;
41635;SDS011;27623;51.966;4.602;2022-12-07T06:34:13;5.63;;;1.17;;
41635;SDS011;27623;51.966;4.602;2022-12-07T06:36:41;4.20;;;0.93;;
41635;SDS011;27623;51.966;4.602;2022-12-07T06:39:07;5.53;;;1.08;;
41635;SDS011;27623;51.966;4.602;2022-12-07T06:41:34;4.38;;;1.38;;
41635;SDS011;27623;51.966;4.602;2022-12-07T06:44:01;3.88;;;1.17;;
41635;SDS011;27623;51.966;4.602;2022-12-07T06:46:27;4.65;;;1.02;;
41635;SDS011;27623;51.966;4.602;2022-12-07T06:48:53;8.43;;;1.17;;
41635;SDS011;27623;51.966;4.602;2022-12-07T06:51:18;4.65;;;1.00;;
41635;SDS011;27623;51.966;4.602;2022-12-07T06:53:44;4.50;;;0.95;;
41635;SDS011;27623;51.966;4.602;2022-12-07T06:56:09;3.65;;;0.80;;
41635;SDS011;27623;51.966;4.602;2022-12-07T06:58:34;5.32;;;1.27;;
41635;SDS011;27623;51.966;4.602;2022-12-07T07:01:00;5.18;;;0.95;;
41635;SDS011;27623;51.966;4.602;2022-12-07T07:03:26;8.63;;;1.10;;
41635;SDS011;27623;51.966;4.602;2022-12-07T07:05:51;6.45;;;1.67;;
41635;SDS011;27623;51.966;4.602;2022-12-07T07:08:17;11.57;;;3.22;;
41635;SDS011;27623;51.966;4.602;2022-12-07T07:10:42;4.50;;;1.17;;
41635;SDS011;27623;51.966;4.602;2022-12-07T07:13:08;6.60;;;1.20;;
41635;SDS011;27623;51.966;4.602;2022-12-07T07:15:33;9.13;;;3.10;;
41635;SDS011;27623;51.966;4.602;2022-12-07T07:17:59;6.18;;;1.55;;
41635;SDS011;27623;51.966;4.602;2022-12-07T07:20:25;5.88;;;2.50;;
41635;SDS011;27623;51.966;4.602;2022-12-07T07:22:53;5.78;;;1.40;;
41635;SDS011;27623;51.966;4.602;2022-12-07T07:25:19;5.88;;;1.60;;
41635;SDS011;27623;51.966;4.602;2022-12-07T07:27:45;3.45;;;1.23;;
41635;SDS011;27623;51.966;4.602;2022-12-07T07:30:11;8.15;;;2.00;;
41635;SDS011;27623;51.966;4.602;2022-12-07T07:32:36;6.80;;;1.17;;
41635;SDS011;27623;51.966;4.602;2022-12-07T07:35:02;6.40;;;1.55;;
41635;SDS011;27623;51.966;4.602;2022-12-07T07:37:28;4.88;;;1.40;;
41635;SDS011;27623;51.966;4.602;2022-12-07T07:39:53;6.53;;;1.75;;
41635;SDS011;27623;51.966;4.602;2022-12-07T07:42:19;10.50;;;1.65;;
41635;SDS011;27623;51.966;4.602;2022-12-07T07:44:45;5.13;;;1.55;;
41635;SDS011;27623;51.966;4.602;2022-12-07T07:47:10;10.43;;;1.83;;
41635;SDS011;27623;51.966;4.602;2022-12-07T07:49:35;7.28;;;1.65;;
41635;SDS011;27623;51.966;4.602;2022-12-07T07:52:02;7.68;;;2.67;;
41635;SDS011;27623;51.966;4.602;2022-12-07T07:54:27;4.47;;;1.83;;
41635;SDS011;27623;51.966;4.602;2022-12-07T07:56:52;8.10;;;1.98;;
41635;SDS011;27623;51.966;4.602;2022-12-07T07:59:18;6.82;;;1.73;;
41635;SDS011;27623;51.966;4.602;2022-12-07T08:01:44;6.63;;;1.88;;
41635;SDS011;27623;51.966;4.602;2022-12-07T08:04:10;8.15;;;1.27;;
41635;SDS011;27623;51.966;4.602;2022-12-07T08:06:35;4.85;;;1.30;;
41635;SDS011;27623;51.966;4.602;2022-12-07T08:09:01;5.47;;;1.65;;
41635;SDS011;27623;51.966;4.602;2022-12-07T08:11:30;3.92;;;1.40;;
41635;SDS011;27623;51.966;4.602;2022-12-07T08:13:56;5.70;;;1.60;;
41635;SDS011;27623;51.966;4.602;2022-12-07T08:16:21;8.52;;;1.90;;
41635;SDS011;27623;51.966;4.602;2022-12-07T08:18:47;5.15;;;1.58;;
41635;SDS011;27623;51.966;4.602;2022-12-07T08:21:13;7.78;;;1.75;;
41635;SDS011;27623;51.966;4.602;2022-12-07T08:23:39;4.18;;;1.45;;
41635;SDS011;27623;51.966;4.602;2022-12-07T08:26:06;5.50;;;1.52;;
41635;SDS011;27623;51.966;4.602;2022-12-07T08:28:34;8.68;;;2.55;;
41635;SDS011;27623;51.966;4.602;2022-12-07T08:31:03;5.63;;;2.00;;
41635;SDS011;27623;51.966;4.602;2022-12-07T08:33:34;5.80;;;1.85;;
41635;SDS011;27623;51.966;4.602;2022-12-07T08:36:03;10.75;;;2.08;;
41635;SDS011;27623;51.966;4.602;2022-12-07T08:38:34;4.85;;;1.80;;
41635;SDS011;27623;51.966;4.602;2022-12-07T08:41:00;11.45;;;2.30;;
41635;SDS011;27623;51.966;4.602;2022-12-07T08:43:26;7.95;;;2.20;;
41635;SDS011;27623;51.966;4.602;2022-12-07T08:46:11;6.07;;;1.77;;
41635;SDS011;27623;51.966;4.602;2022-12-07T08:48:47;7.70;;;2.00;;
41635;SDS011;27623;51.966;4.602;2022-12-07T08:51:19;10.00;;;2.58;;
41635;SDS011;27623;51.966;4.602;2022-12-07T08:53:47;5.13;;;2.33;;
41635;SDS011;27623;51.966;4.602;2022-12-07T08:56:14;8.68;;;1.92;;
41635;SDS011;27623;51.966;4.602;2022-12-07T08:58:39;8.43;;;1.83;;
41635;SDS011;27623;51.966;4.602;2022-12-07T09:01:06;7.65;;;2.13;;
41635;SDS011;27623;51.966;4.602;2022-12-07T09:03:31;4.68;;;2.35;;
41635;SDS011;27623;51.966;4.602;2022-12-07T09:06:01;8.95;;;1.95;;
41635;SDS011;27623;51.966;4.602;2022-12-07T09:08:32;11.80;;;2.33;;
41635;SDS011;27623;51.966;4.602;2022-12-07T09:11:01;7.75;;;2.45;;
41635;SDS011;27623;51.966;4.602;2022-12-07T09:13:26;7.15;;;1.90;;
41635;SDS011;27623;51.966;4.602;2022-12-07T09:15:52;6.85;;;2.50;;
41635;SDS011;27623;51.966;4.602;2022-12-07T09:18:17;6.10;;;1.83;;
41635;SDS011;27623;51.966;4.602;2022-12-07T09:20:43;9.30;;;2.47;;
41635;SDS011;27623;51.966;4.602;2022-12-07T09:23:10;5.95;;;1.60;;
41635;SDS011;27623;51.966;4.602;2022-12-07T09:25:36;5.03;;;1.98;;
41635;SDS011;27623;51.966;4.602;2022-12-07T09:28:02;7.88;;;1.95;;
41635;SDS011;27623;51.966;4.602;2022-12-07T09:30:27;6.97;;;1.25;;
41635;SDS011;27623;51.966;4.602;2022-12-07T09:32:54;4.93;;;0.73;;
41635;SDS011;27623;51.966;4.602;2022-12-07T09:35:21;5.00;;;1.02;;
41635;SDS011;27623;51.966;4.602;2022-12-07T09:37:47;4.47;;;1.08;;
41635;SDS011;27623;51.966;4.602;2022-12-07T09:40:13;3.80;;;0.70;;
41635;SDS011;27623;51.966;4.602;2022-12-07T09:42:41;5.80;;;0.80;;
41635;SDS011;27623;51.966;4.602;2022-12-07T09:45:23;2.83;;;0.73;;
41635;SDS011;27623;51.966;4.602;2022-12-07T09:47:59;5.78;;;1.08;;
41635;SDS011;27623;51.966;4.602;2022-12-07T09:50:26;2.35;;;0.90;;
41635;SDS011;27623;51.966;4.602;2022-12-07T09:52:54;3.65;;;0.68;;
41635;SDS011;27623;51.966;4.602;2022-12-07T09:55:30;1.88;;;0.65;;
41635;SDS011;27623;51.966;4.602;2022-12-07T09:57:56;2.80;;;0.70;;
41635;SDS011;27623;51.966;4.602;2022-12-07T10:00:24;4.35;;;1.20;;
41635;SDS011;27623;51.966;4.602;2022-12-07T10:03:00;1.95;;;0.80;;
41635;SDS011;27623;51.966;4.602;2022-12-07T10:05:30;3.70;;;1.00;;
41635;SDS011;27623;51.966;4.602;2022-12-07T10:08:01;4.18;;;0.80;;
41635;SDS011;27623;51.966;4.602;2022-12-07T10:10:30;5.63;;;1.15;;
41635;SDS011;27623;51.966;4.602;2022-12-07T10:12:58;3.75;;;0.82;;
41635;SDS011;27623;51.966;4.602;2022-12-07T10:18:28;6.03;;;1.20;;
41635;SDS011;27623;51.966;4.602;2022-12-07T10:31:37;3.78;;;1.00;;
41635;SDS011;27623;51.966;4.602;2022-12-07T10:34:12;4.85;;;1.25;;
41635;SDS011;27623;51.966;4.602;2022-12-07T10:36:47;5.55;;;1.15;;
41635;SDS011;27623;51.966;4.602;2022-12-07T10:39:15;4.50;;;1.48;;
41635;SDS011;27623;51.966;4.602;2022-12-07T10:41:55;8.20;;;1.38;;
41635;SDS011;27623;51.966;4.602;2022-12-07T10:44:28;5.97;;;1.83;;
41635;SDS011;27623;51.966;4.602;2022-12-07T10:47:08;8.18;;;1.48;;
41635;SDS011;27623;51.966;4.602;2022-12-07T10:53:11;9.13;;;1.75;;
41635;SDS011;27623;51.966;4.602;2022-12-07T10:55:56;13.32;;;1.95;;
41635;SDS011;27623;51.966;4.602;2022-12-07T11:06:51;6.57;;;1.90;;
41635;SDS011;27623;51.966;4.602;2022-12-07T11:12:24;4.55;;;1.55;;
41635;SDS011;27623;51.966;4.602;2022-12-07T11:14:54;6.53;;;1.10;;
41635;SDS011;27623;51.966;4.602;2022-12-07T11:17:31;4.68;;;2.15;;
41635;SDS011;27623;51.966;4.602;2022-12-07T11:20:02;8.82;;;1.35;;
41635;SDS011;27623;51.966;4.602;2022-12-07T11:22:44;6.25;;;2.22;;
41635;SDS011;27623;51.966;4.602;2022-12-07T11:34:00;5.38;;;1.10;;
41635;SDS011;27623;51.966;4.602;2022-12-07T11:36:33;4.35;;;1.25;;
41635;SDS011;27623;51.966;4.602;2022-12-07T11:39:04;8.05;;;1.30;;
41635;SDS011;27623;51.966;4.602;2022-12-07T11:42:37;3.92;;;1.05;;
41635;SDS011;27623;51.966;4.602;2022-12-07T11:45:14;6.43;;;0.90;;
41635;SDS011;27623;51.966;4.602;2022-12-07T11:50:32;3.88;;;0.85;;
41635;SDS011;27623;51.966;4.602;2022-12-07T11:53:14;10.68;;;3.33;;
41635;SDS011;27623;51.966;4.602;2022-12-07T11:55:53;3.28;;;1.13;;
41635;SDS011;27623;51.966;4.602;2022-12-07T12:06:34;1.95;;;0.60;;
41635;SDS011;27623;51.966;4.602;2022-12-07T12:11:56;4.07;;;0.47;;
41635;SDS011;27623;51.966;4.602;2022-12-07T12:19:57;4.65;;;0.50;;
41635;SDS011;27623;51.966;4.602;2022-12-07T12:22:44;3.70;;;0.63;;
41635;SDS011;27623;51.966;4.602;2022-12-07T12:25:20;2.72;;;0.50;;
41635;SDS011;27623;51.966;4.602;2022-12-07T12:27:46;6.25;;;0.70;;
41635;SDS011;27623;51.966;4.602;2022-12-07T12:33:15;2.25;;;0.40;;
41635;SDS011;27623;51.966;4.602;2022-12-07T12:36:17;2.70;;;0.68;;
41635;SDS011;27623;51.966;4.602;2022-12-07T12:52:00;2.88;;;0.40;;
41635;SDS011;27623;51.966;4.602;2022-12-07T12:54:29;3.50;;;0.45;;
41635;SDS011;27623;51.966;4.602;2022-12-07T12:59:39;4.85;;;0.60;;
41635;SDS011;27623;51.966;4.602;2022-12-07T13:04:49;1.75;;;0.50;;
41635;SDS011;27623;51.966;4.602;2022-12-07T13:10:21;5.30;;;0.93;;
41635;SDS011;27623;51.966;4.602;2022-12-07T13:29:12;6.07;;;0.90;;
41635;SDS011;27623;51.966;4.602;2022-12-07T13:36:55;3.70;;;0.60;;
41635;SDS011;27623;51.966;4.602;2022-12-07T13:39:22;9.07;;;0.88;;
41635;SDS011;27623;51.966;4.602;2022-12-07T13:41:50;1.52;;;0.50;;
41635;SDS011;27623;51.966;4.602;2022-12-07T13:44:20;4.68;;;0.60;;
41635;SDS011;27623;51.966;4.602;2022-12-07T13:49:31;2.45;;;0.40;;
41635;SDS011;27623;51.966;4.602;2022-12-07T13:54:45;4.97;;;0.65;;
41635;SDS011;27623;51.966;4.602;2022-12-07T13:57:13;3.75;;;0.50;;
41635;SDS011;27623;51.966;4.602;2022-12-07T13:59:39;2.33;;;0.50;;
41635;SDS011;27623;51.966;4.602;2022-12-07T14:02:18;3.90;;;0.60;;
41635;SDS011;27623;51.966;4.602;2022-12-07T14:04:45;6.05;;;0.75;;
41635;SDS011;27623;51.966;4.602;2022-12-07T14:07:48;2.60;;;0.93;;
41635;SDS011;27623;51.966;4.602;2022-12-07T14:16:00;4.03;;;0.60;;
41635;SDS011;27623;51.966;4.602;2022-12-07T14:18:35;2.88;;;0.60;;
41635;SDS011;27623;51.966;4.602;2022-12-07T14:21:22;4.03;;;1.48;;
41635;SDS011;27623;51.966;4.602;2022-12-07T14:26:40;3.65;;;0.63;;
41635;SDS011;27623;51.966;4.602;2022-12-07T14:29:18;6.13;;;0.98;;
41635;SDS011;27623;51.966;4.602;2022-12-07T14:31:49;5.90;;;1.17;;
41635;SDS011;27623;51.966;4.602;2022-12-07T14:34:16;4.93;;;1.73;;
41635;SDS011;27623;51.966;4.602;2022-12-07T14:36:41;5.05;;;1.35;;
41635;SDS011;27623;51.966;4.602;2022-12-07T14:39:09;4.25;;;1.00;;
41635;SDS011;27623;51.966;4.602;2022-12-07T14:41:34;5.10;;;0.82;;
41635;SDS011;27623;51.966;4.602;2022-12-07T14:44:19;5.07;;;0.98;;
41635;SDS011;27623;51.966;4.602;2022-12-07T14:46:48;5.85;;;1.55;;
41635;SDS011;27623;51.966;4.602;2022-12-07T14:49:15;6.63;;;1.63;;
41635;SDS011;27623;51.966;4.602;2022-12-07T14:51:41;6.35;;;1.60;;
41635;SDS011;27623;51.966;4.602;2022-12-07T14:54:12;3.63;;;0.80;;
41635;SDS011;27623;51.966;4.602;2022-12-07T14:56:41;4.50;;;0.90;;
41635;SDS011;27623;51.966;4.602;2022-12-07T14:59:08;6.13;;;0.90;;
41635;SDS011;27623;51.966;4.602;2022-12-07T15:01:34;4.10;;;1.23;;
41635;SDS011;27623;51.966;4.602;2022-12-07T15:04:00;5.53;;;1.17;;
41635;SDS011;27623;51.966;4.602;2022-12-07T15:06:25;5.38;;;0.77;;
41635;SDS011;27623;51.966;4.602;2022-12-07T15:08:50;6.45;;;1.10;;
41635;SDS011;27623;51.966;4.602;2022-12-07T15:11:16;3.33;;;0.57;;
41635;SDS011;27623;51.966;4.602;2022-12-07T15:13:43;5.93;;;0.85;;
41635;SDS011;27623;51.966;4.602;2022-12-07T15:16:29;3.25;;;0.75;;
41635;SDS011;27623;51.966;4.602;2022-12-07T15:18:55;7.53;;;1.48;;
41635;SDS011;27623;51.966;4.602;2022-12-07T15:21:20;5.57;;;1.10;;
41635;SDS011;27623;51.966;4.602;2022-12-07T15:23:46;5.03;;;1.10;;
41635;SDS011;27623;51.966;4.602;2022-12-07T15:26:12;5.95;;;0.95;;
41635;SDS011;27623;51.966;4.602;2022-12-07T15:28:40;2.45;;;0.77;;
41635;SDS011;27623;51.966;4.602;2022-12-07T15:31:12;2.92;;;0.70;;
41635;SDS011;27623;51.966;4.602;2022-12-07T15:33:39;7.70;;;1.05;;
41635;SDS011;27623;51.966;4.602;2022-12-07T15:36:05;3.88;;;0.80;;
41635;SDS011;27623;51.966;4.602;2022-12-07T15:38:32;6.63;;;2.20;;
41635;SDS011;27623;51.966;4.602;2022-12-07T15:40:58;7.72;;;2.50;;
41635;SDS011;27623;51.966;4.602;2022-12-07T15:43:23;6.85;;;2.90;;
41635;SDS011;27623;51.966;4.602;2022-12-07T15:46:07;6.15;;;2.00;;
41635;SDS011;27623;51.966;4.602;2022-12-07T15:48:32;4.50;;;1.13;;
41635;SDS011;27623;51.966;4.602;2022-12-07T15:51:05;4.72;;;0.88;;
41635;SDS011;27623;51.966;4.602;2022-12-07T15:53:32;1.92;;;0.60;;
41635;SDS011;27623;51.966;4.602;2022-12-07T15:56:00;4.07;;;1.30;;
41635;SDS011;27623;51.966;4.602;2022-12-07T15:58:25;5.63;;;1.10;;
41635;SDS011;27623;51.966;4.602;2022-12-07T16:00:51;5.47;;;0.73;;
41635;SDS011;27623;51.966;4.602;2022-12-07T16:03:16;2.33;;;0.82;;
41635;SDS011;27623;51.966;4.602;2022-12-07T16:05:48;5.03;;;1.00;;
41635;SDS011;27623;51.966;4.602;2022-12-07T16:08:14;2.47;;;0.80;;
41635;SDS011;27623;51.966;4.602;2022-12-07T16:10:39;6.00;;;1.00;;
41635;SDS011;27623;51.966;4.602;2022-12-07T16:13:08;3.40;;;0.98;;
41635;SDS011;27623;51.966;4.602;2022-12-07T16:15:38;8.10;;;1.25;;
41635;SDS011;27623;51.966;4.602;2022-12-07T16:18:05;5.60;;;1.50;;
41635;SDS011;27623;51.966;4.602;2022-12-07T16:20:31;5.90;;;1.10;;
41635;SDS011;27623;51.966;4.602;2022-12-07T16:22:56;5.15;;;1.25;;
41635;SDS011;27623;51.966;4.602;2022-12-07T16:25:21;5.50;;;1.20;;
41635;SDS011;27623;51.966;4.602;2022-12-07T16:27:47;7.18;;;1.38;;
41635;SDS011;27623;51.966;4.602;2022-12-07T16:30:13;8.25;;;1.63;;
41635;SDS011;27623;51.966;4.602;2022-12-07T16:32:41;3.42;;;1.52;;
41635;SDS011;27623;51.966;4.602;2022-12-07T16:35:06;9.75;;;1.83;;
41635;SDS011;27623;51.966;4.602;2022-12-07T16:37:35;8.85;;;2.08;;
41635;SDS011;27623;51.966;4.602;2022-12-07T16:40:03;4.93;;;1.33;;
41635;SDS011;27623;51.966;4.602;2022-12-07T16:42:33;7.28;;;1.55;;
41635;SDS011;27623;51.966;4.602;2022-12-07T16:44:59;6.88;;;1.40;;
41635;SDS011;27623;51.966;4.602;2022-12-07T16:47:25;7.78;;;1.98;;
41635;SDS011;27623;51.966;4.602;2022-12-07T16:49:51;7.65;;;1.60;;
41635;SDS011;27623;51.966;4.602;2022-12-07T16:52:19;6.70;;;1.63;;
41635;SDS011;27623;51.966;4.602;2022-12-07T16:54:46;8.15;;;2.40;;
41635;SDS011;27623;51.966;4.602;2022-12-07T16:57:12;6.05;;;2.45;;
41635;SDS011;27623;51.966;4.602;2022-12-07T16:59:37;6.53;;;3.15;;
41635;SDS011;27623;51.966;4.602;2022-12-07T17:02:03;12.30;;;3.13;;
41635;SDS011;27623;51.966;4.602;2022-12-07T17:04:31;7.22;;;2.60;;
41635;SDS011;27623;51.966;4.602;2022-12-07T17:06:59;6.88;;;2.80;;
41635;SDS011;27623;51.966;4.602;2022-12-07T17:09:25;8.57;;;3.13;;
41635;SDS011;27623;51.966;4.602;2022-12-07T17:11:50;10.70;;;2.58;;
41635;SDS011;27623;51.966;4.602;2022-12-07T17:14:16;6.63;;;2.90;;
41635;SDS011;27623;51.966;4.602;2022-12-07T17:17:00;5.50;;;1.80;;
41635;SDS011;27623;51.966;4.602;2022-12-07T17:19:26;10.27;;;1.98;;
41635;SDS011;27623;51.966;4.602;2022-12-07T17:21:51;6.00;;;1.45;;
41635;SDS011;27623;51.966;4.602;2022-12-07T17:24:17;7.45;;;1.75;;